sensor_id;sensor_type;location;lat;lon;timestamp;P1;durP1;ratioP1;P2;durP2;ratioP2
27127;SDS011;14660;49.008;8.390;2022-11-27T00:00:54;15.75;;;9.25;;
27127;SDS011;14660;49.008;8.390;2022-11-27T00:03:19;15.38;;;10.10;;
27127;SDS011;14660;49.008;8.390;2022-11-27T00:05:56;15.60;;;10.02;;
27127;SDS011;14660;49.008;8.390;2022-11-27T00:08:25;15.15;;;9.70;;
27127;SDS011;14660;49.008;8.390;2022-11-27T00:10:51;14.00;;;7.85;;
27127;SDS011;14660;49.008;8.390;2022-11-27T00:13:17;14.85;;;8.15;;
27127;SDS011;14660;49.008;8.390;2022-11-27T00:15:44;11.45;;;7.00;;
27127;SDS011;14660;49.008;8.390;2022-11-27T00:18:11;11.52;;;7.70;;
27127;SDS011;14660;49.008;8.390;2022-11-27T00:20:36;12.75;;;7.93;;
27127;SDS011;14660;49.008;8.390;2022-11-27T00:23:02;16.38;;;8.43;;
27127;SDS011;14660;49.008;8.390;2022-11-27T00:25:27;15.63;;;9.68;;
27127;SDS011;14660;49.008;8.390;2022-11-27T00:27:53;12.25;;;7.70;;
27127;SDS011;14660;49.008;8.390;2022-11-27T00:30:20;12.10;;;8.88;;
27127;SDS011;14660;49.008;8.390;2022-11-27T00:32:45;14.15;;;9.43;;
27127;SDS011;14660;49.008;8.390;2022-11-27T00:35:11;11.98;;;7.45;;
27127;SDS011;14660;49.008;8.390;2022-11-27T00:37:37;12.48;;;7.13;;
27127;SDS011;14660;49.008;8.390;2022-11-27T00:40:02;12.55;;;7.88;;
27127;SDS011;14660;49.008;8.390;2022-11-27T00:42:28;10.50;;;7.25;;
27127;SDS011;14660;49.008;8.390;2022-11-27T00:44:54;14.02;;;8.38;;
27127;SDS011;14660;49.008;8.390;2022-11-27T00:47:19;11.00;;;7.25;;
27127;SDS011;14660;49.008;8.390;2022-11-27T00:49:45;12.65;;;7.40;;
27127;SDS011;14660;49.008;8.390;2022-11-27T00:52:11;10.23;;;7.20;;
27127;SDS011;14660;49.008;8.390;2022-11-27T00:54:36;13.50;;;7.85;;
27127;SDS011;14660;49.008;8.390;2022-11-27T00:57:02;12.90;;;7.32;;
27127;SDS011;14660;49.008;8.390;2022-11-27T00:59:29;12.32;;;8.10;;
27127;SDS011;14660;49.008;8.390;2022-11-27T01:01:55;10.27;;;7.13;;
27127;SDS011;14660;49.008;8.390;2022-11-27T01:04:21;11.65;;;6.97;;
27127;SDS011;14660;49.008;8.390;2022-11-27T01:06:46;12.93;;;8.10;;
27127;SDS011;14660;49.008;8.390;2022-11-27T01:09:12;9.63;;;7.28;;
27127;SDS011;14660;49.008;8.390;2022-11-27T01:11:40;15.43;;;8.68;;
27127;SDS011;14660;49.008;8.390;2022-11-27T01:14:07;11.82;;;7.70;;
27127;SDS011;14660;49.008;8.390;2022-11-27T01:16:41;14.68;;;9.25;;
27127;SDS011;14660;49.008;8.390;2022-11-27T01:19:08;10.65;;;8.55;;
27127;SDS011;14660;49.008;8.390;2022-11-27T01:21:35;13.52;;;8.27;;
27127;SDS011;14660;49.008;8.390;2022-11-27T01:24:01;13.98;;;8.63;;
27127;SDS011;14660;49.008;8.390;2022-11-27T01:26:27;15.20;;;8.93;;
27127;SDS011;14660;49.008;8.390;2022-11-27T01:28:55;13.35;;;8.27;;
27127;SDS011;14660;49.008;8.390;2022-11-27T01:31:23;13.30;;;9.38;;
27127;SDS011;14660;49.008;8.390;2022-11-27T01:33:54;15.25;;;8.38;;
27127;SDS011;14660;49.008;8.390;2022-11-27T01:36:21;13.02;;;8.00;;
27127;SDS011;14660;49.008;8.390;2022-11-27T01:38:47;14.80;;;8.57;;
27127;SDS011;14660;49.008;8.390;2022-11-27T01:41:17;15.20;;;9.50;;
27127;SDS011;14660;49.008;8.390;2022-11-27T01:51:55;11.20;;;6.78;;
27127;SDS011;14660;49.008;8.390;2022-11-27T01:54:23;12.48;;;6.60;;
27127;SDS011;14660;49.008;8.390;2022-11-27T01:56:55;11.45;;;7.30;;
27127;SDS011;14660;49.008;8.390;2022-11-27T01:59:24;13.18;;;7.55;;
27127;SDS011;14660;49.008;8.390;2022-11-27T02:01:51;12.30;;;7.35;;
27127;SDS011;14660;49.008;8.390;2022-11-27T02:04:18;13.25;;;7.00;;
27127;SDS011;14660;49.008;8.390;2022-11-27T02:06:44;11.52;;;6.47;;
27127;SDS011;14660;49.008;8.390;2022-11-27T02:09:10;11.57;;;6.38;;
27127;SDS011;14660;49.008;8.390;2022-11-27T02:14:41;10.25;;;7.07;;
27127;SDS011;14660;49.008;8.390;2022-11-27T02:22:33;9.52;;;6.00;;
27127;SDS011;14660;49.008;8.390;2022-11-27T02:31:15;10.35;;;6.00;;
27127;SDS011;14660;49.008;8.390;2022-11-27T02:33:48;11.38;;;6.68;;
27127;SDS011;14660;49.008;8.390;2022-11-27T02:36:23;12.68;;;6.85;;
27127;SDS011;14660;49.008;8.390;2022-11-27T02:39:01;10.23;;;6.90;;
27127;SDS011;14660;49.008;8.390;2022-11-27T02:41:32;10.95;;;6.32;;
27127;SDS011;14660;49.008;8.390;2022-11-27T02:44:03;12.82;;;6.78;;
27127;SDS011;14660;49.008;8.390;2022-11-27T02:46:31;12.65;;;6.55;;
27127;SDS011;14660;49.008;8.390;2022-11-27T02:49:01;10.98;;;7.05;;
27127;SDS011;14660;49.008;8.390;2022-11-27T02:51:30;13.68;;;7.53;;
27127;SDS011;14660;49.008;8.390;2022-11-27T02:54:05;13.63;;;7.10;;
27127;SDS011;14660;49.008;8.390;2022-11-27T02:56:36;11.90;;;6.43;;
27127;SDS011;14660;49.008;8.390;2022-11-27T02:59:05;11.10;;;7.25;;
27127;SDS011;14660;49.008;8.390;2022-11-27T03:01:37;10.60;;;6.05;;
27127;SDS011;14660;49.008;8.390;2022-11-27T03:04:08;12.83;;;6.77;;
27127;SDS011;14660;49.008;8.390;2022-11-27T03:06:40;13.27;;;6.60;;
27127;SDS011;14660;49.008;8.390;2022-11-27T03:11:39;13.00;;;7.00;;
27127;SDS011;14660;49.008;8.390;2022-11-27T03:14:06;9.73;;;6.45;;
27127;SDS011;14660;49.008;8.390;2022-11-27T03:16:37;10.27;;;6.45;;
27127;SDS011;14660;49.008;8.390;2022-11-27T03:21:45;12.63;;;7.25;;
27127;SDS011;14660;49.008;8.390;2022-11-27T03:24:33;14.13;;;7.05;;
27127;SDS011;14660;49.008;8.390;2022-11-27T03:27:00;14.13;;;7.28;;
27127;SDS011;14660;49.008;8.390;2022-11-27T03:31:59;18.17;;;7.72;;
27127;SDS011;14660;49.008;8.390;2022-11-27T03:34:26;11.25;;;6.97;;
27127;SDS011;14660;49.008;8.390;2022-11-27T03:36:52;13.52;;;7.53;;
27127;SDS011;14660;49.008;8.390;2022-11-27T03:39:18;12.90;;;6.95;;
27127;SDS011;14660;49.008;8.390;2022-11-27T03:47:39;13.32;;;7.00;;
27127;SDS011;14660;49.008;8.390;2022-11-27T03:52:52;15.75;;;8.20;;
27127;SDS011;14660;49.008;8.390;2022-11-27T03:58:18;19.45;;;8.00;;
27127;SDS011;14660;49.008;8.390;2022-11-27T04:00:45;14.70;;;8.13;;
27127;SDS011;14660;49.008;8.390;2022-11-27T04:03:14;16.60;;;7.97;;
27127;SDS011;14660;49.008;8.390;2022-11-27T04:05:50;13.70;;;6.78;;
27127;SDS011;14660;49.008;8.390;2022-11-27T04:08:16;17.17;;;9.48;;
27127;SDS011;14660;49.008;8.390;2022-11-27T04:10:42;17.10;;;7.40;;
27127;SDS011;14660;49.008;8.390;2022-11-27T04:13:07;14.02;;;6.90;;
27127;SDS011;14660;49.008;8.390;2022-11-27T04:15:33;15.80;;;6.78;;
27127;SDS011;14660;49.008;8.390;2022-11-27T04:17:58;17.05;;;8.38;;
27127;SDS011;14660;49.008;8.390;2022-11-27T04:20:25;15.48;;;7.07;;
27127;SDS011;14660;49.008;8.390;2022-11-27T04:22:51;12.50;;;6.60;;
27127;SDS011;14660;49.008;8.390;2022-11-27T04:25:16;11.18;;;5.93;;
27127;SDS011;14660;49.008;8.390;2022-11-27T04:27:42;11.40;;;6.10;;
27127;SDS011;14660;49.008;8.390;2022-11-27T04:30:08;11.50;;;6.30;;
27127;SDS011;14660;49.008;8.390;2022-11-27T04:32:34;13.95;;;7.13;;
27127;SDS011;14660;49.008;8.390;2022-11-27T04:34:59;12.75;;;6.57;;
27127;SDS011;14660;49.008;8.390;2022-11-27T04:37:25;10.55;;;6.38;;
27127;SDS011;14660;49.008;8.390;2022-11-27T04:39:50;12.75;;;7.13;;
27127;SDS011;14660;49.008;8.390;2022-11-27T04:42:16;13.40;;;6.85;;
27127;SDS011;14660;49.008;8.390;2022-11-27T04:44:42;10.90;;;6.07;;
27127;SDS011;14660;49.008;8.390;2022-11-27T04:47:07;12.75;;;6.68;;
27127;SDS011;14660;49.008;8.390;2022-11-27T04:49:34;11.68;;;6.13;;
27127;SDS011;14660;49.008;8.390;2022-11-27T04:51:59;14.02;;;7.88;;
27127;SDS011;14660;49.008;8.390;2022-11-27T04:54:25;11.75;;;6.25;;
27127;SDS011;14660;49.008;8.390;2022-11-27T04:56:51;12.70;;;6.22;;
27127;SDS011;14660;49.008;8.390;2022-11-27T04:59:17;11.45;;;6.68;;
27127;SDS011;14660;49.008;8.390;2022-11-27T05:01:42;11.60;;;7.07;;
27127;SDS011;14660;49.008;8.390;2022-11-27T05:04:08;11.10;;;6.25;;
27127;SDS011;14660;49.008;8.390;2022-11-27T05:06:40;11.07;;;6.32;;
27127;SDS011;14660;49.008;8.390;2022-11-27T05:09:06;9.68;;;5.60;;
27127;SDS011;14660;49.008;8.390;2022-11-27T05:11:32;12.95;;;6.28;;
27127;SDS011;14660;49.008;8.390;2022-11-27T05:13:57;15.15;;;7.75;;
27127;SDS011;14660;49.008;8.390;2022-11-27T05:16:52;8.85;;;5.57;;
27127;SDS011;14660;49.008;8.390;2022-11-27T05:19:20;13.48;;;6.95;;
27127;SDS011;14660;49.008;8.390;2022-11-27T05:21:54;11.57;;;6.05;;
27127;SDS011;14660;49.008;8.390;2022-11-27T05:24:21;9.75;;;5.85;;
27127;SDS011;14660;49.008;8.390;2022-11-27T05:26:49;11.10;;;5.88;;
27127;SDS011;14660;49.008;8.390;2022-11-27T05:29:15;10.82;;;5.95;;
27127;SDS011;14660;49.008;8.390;2022-11-27T05:31:40;11.25;;;6.38;;
27127;SDS011;14660;49.008;8.390;2022-11-27T05:34:06;10.20;;;6.05;;
27127;SDS011;14660;49.008;8.390;2022-11-27T05:36:32;10.57;;;5.97;;
27127;SDS011;14660;49.008;8.390;2022-11-27T05:38:58;12.77;;;6.47;;
27127;SDS011;14660;49.008;8.390;2022-11-27T05:41:26;8.55;;;6.68;;
27127;SDS011;14660;49.008;8.390;2022-11-27T05:43:51;11.07;;;6.07;;
27127;SDS011;14660;49.008;8.390;2022-11-27T05:46:18;10.18;;;5.28;;
27127;SDS011;14660;49.008;8.390;2022-11-27T05:48:47;12.25;;;6.65;;
27127;SDS011;14660;49.008;8.390;2022-11-27T05:51:13;11.18;;;5.45;;
27127;SDS011;14660;49.008;8.390;2022-11-27T05:53:40;13.10;;;7.07;;
27127;SDS011;14660;49.008;8.390;2022-11-27T05:56:10;15.43;;;7.65;;
27127;SDS011;14660;49.008;8.390;2022-11-27T05:58:38;10.07;;;6.63;;
27127;SDS011;14660;49.008;8.390;2022-11-27T06:01:05;10.85;;;5.53;;
27127;SDS011;14660;49.008;8.390;2022-11-27T06:03:32;11.57;;;5.65;;
27127;SDS011;14660;49.008;8.390;2022-11-27T06:06:04;11.77;;;7.03;;
27127;SDS011;14660;49.008;8.390;2022-11-27T06:08:32;12.38;;;6.15;;
27127;SDS011;14660;49.008;8.390;2022-11-27T06:10:58;10.63;;;5.68;;
27127;SDS011;14660;49.008;8.390;2022-11-27T06:13:25;14.38;;;6.97;;
27127;SDS011;14660;49.008;8.390;2022-11-27T06:15:51;12.85;;;6.53;;
27127;SDS011;14660;49.008;8.390;2022-11-27T06:18:16;15.52;;;7.60;;
27127;SDS011;14660;49.008;8.390;2022-11-27T06:20:42;12.48;;;6.15;;
27127;SDS011;14660;49.008;8.390;2022-11-27T06:23:07;12.40;;;5.82;;
27127;SDS011;14660;49.008;8.390;2022-11-27T06:25:33;10.23;;;6.05;;
27127;SDS011;14660;49.008;8.390;2022-11-27T06:27:58;11.75;;;7.07;;
27127;SDS011;14660;49.008;8.390;2022-11-27T06:30:25;16.10;;;7.82;;
27127;SDS011;14660;49.008;8.390;2022-11-27T06:32:51;14.07;;;7.07;;
27127;SDS011;14660;49.008;8.390;2022-11-27T06:35:16;15.63;;;6.43;;
27127;SDS011;14660;49.008;8.390;2022-11-27T06:37:42;17.02;;;7.32;;
27127;SDS011;14660;49.008;8.390;2022-11-27T06:40:09;12.25;;;5.32;;
27127;SDS011;14660;49.008;8.390;2022-11-27T06:42:36;11.32;;;5.35;;
27127;SDS011;14660;49.008;8.390;2022-11-27T06:45:02;12.77;;;5.75;;
27127;SDS011;14660;49.008;8.390;2022-11-27T06:47:29;13.55;;;7.30;;
27127;SDS011;14660;49.008;8.390;2022-11-27T06:49:56;13.27;;;6.65;;
27127;SDS011;14660;49.008;8.390;2022-11-27T06:52:23;12.52;;;5.93;;
27127;SDS011;14660;49.008;8.390;2022-11-27T06:54:52;15.95;;;6.38;;
27127;SDS011;14660;49.008;8.390;2022-11-27T06:57:20;12.00;;;6.80;;
27127;SDS011;14660;49.008;8.390;2022-11-27T06:59:47;9.90;;;5.20;;
27127;SDS011;14660;49.008;8.390;2022-11-27T07:02:14;15.95;;;6.35;;
27127;SDS011;14660;49.008;8.390;2022-11-27T07:04:41;13.75;;;5.47;;
27127;SDS011;14660;49.008;8.390;2022-11-27T07:07:08;11.25;;;5.65;;
27127;SDS011;14660;49.008;8.390;2022-11-27T07:09:35;10.80;;;4.07;;
27127;SDS011;14660;49.008;8.390;2022-11-27T07:12:03;8.98;;;5.07;;
27127;SDS011;14660;49.008;8.390;2022-11-27T07:14:30;8.38;;;5.60;;
27127;SDS011;14660;49.008;8.390;2022-11-27T07:16:57;9.02;;;4.15;;
27127;SDS011;14660;49.008;8.390;2022-11-27T07:19:23;8.20;;;5.25;;
27127;SDS011;14660;49.008;8.390;2022-11-27T07:21:49;6.18;;;3.97;;
27127;SDS011;14660;49.008;8.390;2022-11-27T07:24:14;6.88;;;4.95;;
27127;SDS011;14660;49.008;8.390;2022-11-27T07:26:41;7.18;;;4.45;;
27127;SDS011;14660;49.008;8.390;2022-11-27T07:29:07;8.70;;;4.88;;
27127;SDS011;14660;49.008;8.390;2022-11-27T07:31:32;6.90;;;4.15;;
27127;SDS011;14660;49.008;8.390;2022-11-27T07:33:58;6.15;;;4.25;;
27127;SDS011;14660;49.008;8.390;2022-11-27T07:36:26;6.63;;;3.63;;
27127;SDS011;14660;49.008;8.390;2022-11-27T07:38:54;6.10;;;4.28;;
27127;SDS011;14660;49.008;8.390;2022-11-27T07:41:21;11.02;;;5.30;;
27127;SDS011;14660;49.008;8.390;2022-11-27T07:43:47;7.30;;;5.10;;
27127;SDS011;14660;49.008;8.390;2022-11-27T07:46:17;9.93;;;6.00;;
27127;SDS011;14660;49.008;8.390;2022-11-27T07:48:45;7.90;;;4.72;;
27127;SDS011;14660;49.008;8.390;2022-11-27T07:51:13;10.40;;;5.28;;
27127;SDS011;14660;49.008;8.390;2022-11-27T07:53:42;9.73;;;5.47;;
27127;SDS011;14660;49.008;8.390;2022-11-27T07:56:09;8.88;;;5.20;;
27127;SDS011;14660;49.008;8.390;2022-11-27T07:58:36;8.02;;;4.28;;
27127;SDS011;14660;49.008;8.390;2022-11-27T08:01:05;11.95;;;6.63;;
27127;SDS011;14660;49.008;8.390;2022-11-27T08:03:33;11.07;;;5.40;;
27127;SDS011;14660;49.008;8.390;2022-11-27T08:05:58;7.07;;;3.75;;
27127;SDS011;14660;49.008;8.390;2022-11-27T08:08:24;7.03;;;4.20;;
27127;SDS011;14660;49.008;8.390;2022-11-27T08:10:51;6.60;;;4.05;;
27127;SDS011;14660;49.008;8.390;2022-11-27T08:13:18;6.10;;;3.75;;
27127;SDS011;14660;49.008;8.390;2022-11-27T08:15:43;6.00;;;3.55;;
27127;SDS011;14660;49.008;8.390;2022-11-27T08:18:11;6.93;;;4.47;;
27127;SDS011;14660;49.008;8.390;2022-11-27T08:20:38;7.43;;;4.57;;
27127;SDS011;14660;49.008;8.390;2022-11-27T08:23:05;7.30;;;4.82;;
27127;SDS011;14660;49.008;8.390;2022-11-27T08:25:32;8.00;;;4.80;;
27127;SDS011;14660;49.008;8.390;2022-11-27T08:27:58;6.82;;;5.15;;
27127;SDS011;14660;49.008;8.390;2022-11-27T08:30:25;6.78;;;4.05;;
27127;SDS011;14660;49.008;8.390;2022-11-27T08:32:51;9.20;;;4.90;;
27127;SDS011;14660;49.008;8.390;2022-11-27T08:35:17;9.05;;;4.85;;
27127;SDS011;14660;49.008;8.390;2022-11-27T08:37:44;8.23;;;4.57;;
27127;SDS011;14660;49.008;8.390;2022-11-27T08:40:11;6.93;;;4.47;;
27127;SDS011;14660;49.008;8.390;2022-11-27T08:42:38;6.20;;;4.50;;
27127;SDS011;14660;49.008;8.390;2022-11-27T08:45:05;7.32;;;5.18;;
27127;SDS011;14660;49.008;8.390;2022-11-27T08:47:32;8.35;;;4.18;;
27127;SDS011;14660;49.008;8.390;2022-11-27T08:49:58;7.40;;;4.65;;
27127;SDS011;14660;49.008;8.390;2022-11-27T08:52:25;7.85;;;4.38;;
27127;SDS011;14660;49.008;8.390;2022-11-27T08:54:52;6.22;;;4.13;;
27127;SDS011;14660;49.008;8.390;2022-11-27T08:57:19;7.47;;;4.38;;
27127;SDS011;14660;49.008;8.390;2022-11-27T08:59:45;7.65;;;4.70;;
27127;SDS011;14660;49.008;8.390;2022-11-27T09:02:12;5.35;;;4.18;;
27127;SDS011;14660;49.008;8.390;2022-11-27T09:04:39;9.10;;;5.50;;
27127;SDS011;14660;49.008;8.390;2022-11-27T09:07:06;4.45;;;3.97;;
27127;SDS011;14660;49.008;8.390;2022-11-27T09:09:35;7.28;;;4.50;;
27127;SDS011;14660;49.008;8.390;2022-11-27T09:12:01;6.60;;;3.97;;
27127;SDS011;14660;49.008;8.390;2022-11-27T09:14:28;5.80;;;4.53;;
27127;SDS011;14660;49.008;8.390;2022-11-27T09:16:55;5.85;;;3.42;;
27127;SDS011;14660;49.008;8.390;2022-11-27T09:19:22;6.00;;;4.25;;
27127;SDS011;14660;49.008;8.390;2022-11-27T09:21:51;5.93;;;3.72;;
27127;SDS011;14660;49.008;8.390;2022-11-27T09:24:17;6.47;;;4.30;;
27127;SDS011;14660;49.008;8.390;2022-11-27T09:26:44;8.65;;;4.47;;
27127;SDS011;14660;49.008;8.390;2022-11-27T09:29:11;6.22;;;4.07;;
27127;SDS011;14660;49.008;8.390;2022-11-27T09:31:38;7.15;;;4.75;;
27127;SDS011;14660;49.008;8.390;2022-11-27T09:34:05;5.55;;;4.20;;
27127;SDS011;14660;49.008;8.390;2022-11-27T09:36:32;6.90;;;4.75;;
27127;SDS011;14660;49.008;8.390;2022-11-27T09:38:58;4.80;;;4.07;;
27127;SDS011;14660;49.008;8.390;2022-11-27T09:55:54;9.25;;;6.15;;
27127;SDS011;14660;49.008;8.390;2022-11-27T10:01:30;11.38;;;7.78;;
27127;SDS011;14660;49.008;8.390;2022-11-27T10:03:57;13.20;;;9.90;;
27127;SDS011;14660;49.008;8.390;2022-11-27T10:16:35;15.53;;;9.33;;
27127;SDS011;14660;49.008;8.390;2022-11-27T10:19:52;15.30;;;9.48;;
27127;SDS011;14660;49.008;8.390;2022-11-27T10:30:19;16.42;;;10.93;;
27127;SDS011;14660;49.008;8.390;2022-11-27T10:32:46;15.52;;;11.15;;
27127;SDS011;14660;49.008;8.390;2022-11-27T10:35:16;16.80;;;10.60;;
27127;SDS011;14660;49.008;8.390;2022-11-27T10:38:26;18.38;;;9.50;;
27127;SDS011;14660;49.008;8.390;2022-11-27T10:40:43;18.60;;;11.88;;
27127;SDS011;14660;49.008;8.390;2022-11-27T10:43:31;22.55;;;13.43;;
27127;SDS011;14660;49.008;8.390;2022-11-27T10:48:25;22.33;;;12.65;;
27127;SDS011;14660;49.008;8.390;2022-11-27T10:50:54;24.90;;;14.73;;
27127;SDS011;14660;49.008;8.390;2022-11-27T10:53:31;26.17;;;13.38;;
27127;SDS011;14660;49.008;8.390;2022-11-27T10:59:17;18.77;;;10.65;;
27127;SDS011;14660;49.008;8.390;2022-11-27T11:01:48;18.17;;;11.13;;
27127;SDS011;14660;49.008;8.390;2022-11-27T11:04:25;16.92;;;10.13;;
27127;SDS011;14660;49.008;8.390;2022-11-27T11:06:53;18.38;;;11.77;;
27127;SDS011;14660;49.008;8.390;2022-11-27T11:12:17;21.23;;;11.07;;
27127;SDS011;14660;49.008;8.390;2022-11-27T11:14:51;19.92;;;11.57;;
27127;SDS011;14660;49.008;8.390;2022-11-27T11:17:23;16.27;;;10.73;;
27127;SDS011;14660;49.008;8.390;2022-11-27T11:19:50;15.75;;;10.13;;
27127;SDS011;14660;49.008;8.390;2022-11-27T11:22:16;19.63;;;11.23;;
27127;SDS011;14660;49.008;8.390;2022-11-27T11:24:47;22.35;;;10.55;;
27127;SDS011;14660;49.008;8.390;2022-11-27T11:27:16;17.60;;;9.93;;
27127;SDS011;14660;49.008;8.390;2022-11-27T11:32:30;16.37;;;11.27;;
27127;SDS011;14660;49.008;8.390;2022-11-27T11:35:00;20.53;;;11.67;;
27127;SDS011;14660;49.008;8.390;2022-11-27T11:37:47;21.27;;;12.07;;
27127;SDS011;14660;49.008;8.390;2022-11-27T11:45:25;23.70;;;13.95;;
27127;SDS011;14660;49.008;8.390;2022-11-27T11:47:57;25.92;;;13.85;;
27127;SDS011;14660;49.008;8.390;2022-11-27T11:53:49;24.30;;;12.93;;
27127;SDS011;14660;49.008;8.390;2022-11-27T12:24:47;25.02;;;13.07;;
27127;SDS011;14660;49.008;8.390;2022-11-27T12:27:56;26.48;;;12.65;;
27127;SDS011;14660;49.008;8.390;2022-11-27T12:31:23;19.73;;;12.85;;
27127;SDS011;14660;49.008;8.390;2022-11-27T12:39:52;23.48;;;14.38;;
27127;SDS011;14660;49.008;8.390;2022-11-27T12:45:52;22.23;;;12.38;;
27127;SDS011;14660;49.008;8.390;2022-11-27T12:50:55;22.40;;;13.68;;
27127;SDS011;14660;49.008;8.390;2022-11-27T12:58:55;19.60;;;11.50;;
27127;SDS011;14660;49.008;8.390;2022-11-27T13:01:35;23.50;;;12.85;;
27127;SDS011;14660;49.008;8.390;2022-11-27T13:04:12;21.65;;;12.30;;
27127;SDS011;14660;49.008;8.390;2022-11-27T13:06:57;22.70;;;12.13;;
27127;SDS011;14660;49.008;8.390;2022-11-27T13:09:36;19.55;;;11.10;;
27127;SDS011;14660;49.008;8.390;2022-11-27T13:12:14;23.63;;;11.45;;
27127;SDS011;14660;49.008;8.390;2022-11-27T13:14:45;21.30;;;11.32;;
27127;SDS011;14660;49.008;8.390;2022-11-27T13:22:13;23.20;;;13.35;;
27127;SDS011;14660;49.008;8.390;2022-11-27T13:24:45;25.08;;;14.02;;
27127;SDS011;14660;49.008;8.390;2022-11-27T13:27:25;17.08;;;11.80;;
27127;SDS011;14660;49.008;8.390;2022-11-27T13:29:58;22.27;;;12.43;;
27127;SDS011;14660;49.008;8.390;2022-11-27T13:32:35;23.15;;;13.85;;
27127;SDS011;14660;49.008;8.390;2022-11-27T13:35:18;24.23;;;14.87;;
27127;SDS011;14660;49.008;8.390;2022-11-27T13:37:45;21.85;;;13.07;;
27127;SDS011;14660;49.008;8.390;2022-11-27T13:40:22;26.17;;;13.32;;
27127;SDS011;14660;49.008;8.390;2022-11-27T13:42:54;27.27;;;15.45;;
27127;SDS011;14660;49.008;8.390;2022-11-27T13:45:33;24.80;;;12.80;;
27127;SDS011;14660;49.008;8.390;2022-11-27T13:48:01;25.00;;;12.95;;
27127;SDS011;14660;49.008;8.390;2022-11-27T13:50:43;19.05;;;12.57;;
27127;SDS011;14660;49.008;8.390;2022-11-27T13:53:10;22.63;;;13.13;;
27127;SDS011;14660;49.008;8.390;2022-11-27T13:55:38;19.50;;;12.00;;
27127;SDS011;14660;49.008;8.390;2022-11-27T13:58:26;24.25;;;12.82;;
27127;SDS011;14660;49.008;8.390;2022-11-27T14:00:53;25.38;;;12.50;;
27127;SDS011;14660;49.008;8.390;2022-11-27T14:03:23;26.00;;;12.38;;
27127;SDS011;14660;49.008;8.390;2022-11-27T14:05:50;22.15;;;12.35;;
27127;SDS011;14660;49.008;8.390;2022-11-27T14:11:02;22.92;;;12.48;;
27127;SDS011;14660;49.008;8.390;2022-11-27T14:13:37;22.42;;;12.23;;
27127;SDS011;14660;49.008;8.390;2022-11-27T14:18:56;24.60;;;14.85;;
27127;SDS011;14660;49.008;8.390;2022-11-27T14:21:45;28.25;;;15.18;;
27127;SDS011;14660;49.008;8.390;2022-11-27T14:24:23;34.83;;;17.38;;
27127;SDS011;14660;49.008;8.390;2022-11-27T14:26:51;32.10;;;18.50;;
27127;SDS011;14660;49.008;8.390;2022-11-27T14:29:22;32.20;;;15.77;;
27127;SDS011;14660;49.008;8.390;2022-11-27T14:31:55;31.80;;;18.52;;
27127;SDS011;14660;49.008;8.390;2022-11-27T14:34:26;29.33;;;16.20;;
27127;SDS011;14660;49.008;8.390;2022-11-27T14:36:53;26.42;;;13.95;;
27127;SDS011;14660;49.008;8.390;2022-11-27T14:39:23;29.38;;;14.20;;
27127;SDS011;14660;49.008;8.390;2022-11-27T14:41:59;41.33;;;25.15;;
27127;SDS011;14660;49.008;8.390;2022-11-27T14:44:27;22.83;;;12.55;;
27127;SDS011;14660;49.008;8.390;2022-11-27T14:46:54;22.88;;;11.63;;
27127;SDS011;14660;49.008;8.390;2022-11-27T14:49:23;16.75;;;11.20;;
27127;SDS011;14660;49.008;8.390;2022-11-27T14:51:50;22.13;;;12.10;;
27127;SDS011;14660;49.008;8.390;2022-11-27T14:54:24;20.25;;;12.10;;
27127;SDS011;14660;49.008;8.390;2022-11-27T14:56:52;17.35;;;10.60;;
27127;SDS011;14660;49.008;8.390;2022-11-27T14:59:19;21.25;;;10.45;;
27127;SDS011;14660;49.008;8.390;2022-11-27T15:02:00;19.45;;;11.30;;
27127;SDS011;14660;49.008;8.390;2022-11-27T15:04:45;18.65;;;11.63;;
27127;SDS011;14660;49.008;8.390;2022-11-27T15:07:13;20.63;;;10.80;;
27127;SDS011;14660;49.008;8.390;2022-11-27T15:09:41;21.40;;;11.50;;
27127;SDS011;14660;49.008;8.390;2022-11-27T15:14:44;25.52;;;12.68;;
27127;SDS011;14660;49.008;8.390;2022-11-27T15:17:16;22.92;;;13.77;;
27127;SDS011;14660;49.008;8.390;2022-11-27T15:19:49;23.50;;;12.43;;
27127;SDS011;14660;49.008;8.390;2022-11-27T15:22:15;24.55;;;12.77;;
27127;SDS011;14660;49.008;8.390;2022-11-27T15:24:42;20.73;;;12.32;;
27127;SDS011;14660;49.008;8.390;2022-11-27T15:27:15;22.40;;;11.48;;
27127;SDS011;14660;49.008;8.390;2022-11-27T15:32:16;32.72;;;17.52;;
27127;SDS011;14660;49.008;8.390;2022-11-27T15:34:49;30.30;;;16.55;;
27127;SDS011;14660;49.008;8.390;2022-11-27T15:37:28;27.92;;;16.33;;
27127;SDS011;14660;49.008;8.390;2022-11-27T15:39:58;21.08;;;12.35;;
27127;SDS011;14660;49.008;8.390;2022-11-27T15:42:25;28.48;;;13.82;;
27127;SDS011;14660;49.008;8.390;2022-11-27T15:44:52;28.02;;;13.73;;
27127;SDS011;14660;49.008;8.390;2022-11-27T15:47:29;19.23;;;12.48;;
27127;SDS011;14660;49.008;8.390;2022-11-27T15:50:00;23.63;;;13.57;;
27127;SDS011;14660;49.008;8.390;2022-11-27T15:52:27;25.85;;;14.02;;
27127;SDS011;14660;49.008;8.390;2022-11-27T15:54:54;27.80;;;16.45;;
27127;SDS011;14660;49.008;8.390;2022-11-27T15:57:21;25.90;;;14.35;;
27127;SDS011;14660;49.008;8.390;2022-11-27T15:59:49;28.05;;;14.68;;
27127;SDS011;14660;49.008;8.390;2022-11-27T16:02:14;22.17;;;14.10;;
27127;SDS011;14660;49.008;8.390;2022-11-27T16:04:40;23.05;;;12.82;;
27127;SDS011;14660;49.008;8.390;2022-11-27T16:07:08;19.77;;;12.07;;
27127;SDS011;14660;49.008;8.390;2022-11-27T16:09:34;19.25;;;11.00;;
27127;SDS011;14660;49.008;8.390;2022-11-27T16:12:00;17.75;;;10.95;;
27127;SDS011;14660;49.008;8.390;2022-11-27T16:14:26;16.00;;;10.82;;
27127;SDS011;14660;49.008;8.390;2022-11-27T16:16:52;23.83;;;13.10;;
27127;SDS011;14660;49.008;8.390;2022-11-27T16:19:18;33.58;;;12.80;;
27127;SDS011;14660;49.008;8.390;2022-11-27T16:21:45;19.23;;;11.65;;
27127;SDS011;14660;49.008;8.390;2022-11-27T16:24:12;19.08;;;10.25;;
27127;SDS011;14660;49.008;8.390;2022-11-27T16:26:39;22.52;;;11.40;;
27127;SDS011;14660;49.008;8.390;2022-11-27T16:29:05;19.48;;;11.75;;
27127;SDS011;14660;49.008;8.390;2022-11-27T16:31:38;22.60;;;12.93;;
27127;SDS011;14660;49.008;8.390;2022-11-27T16:34:04;23.67;;;12.85;;
27127;SDS011;14660;49.008;8.390;2022-11-27T16:36:30;17.60;;;12.50;;
27127;SDS011;14660;49.008;8.390;2022-11-27T16:38:56;18.55;;;13.07;;
27127;SDS011;14660;49.008;8.390;2022-11-27T16:41:29;21.38;;;12.02;;
27127;SDS011;14660;49.008;8.390;2022-11-27T16:43:55;36.78;;;17.05;;
27127;SDS011;14660;49.008;8.390;2022-11-27T16:46:22;21.50;;;14.02;;
27127;SDS011;14660;49.008;8.390;2022-11-27T16:48:56;19.90;;;11.48;;
27127;SDS011;14660;49.008;8.390;2022-11-27T16:51:31;22.90;;;13.65;;
27127;SDS011;14660;49.008;8.390;2022-11-27T16:54:01;23.77;;;14.35;;
27127;SDS011;14660;49.008;8.390;2022-11-27T16:56:29;22.42;;;14.35;;
27127;SDS011;14660;49.008;8.390;2022-11-27T16:58:56;25.60;;;14.52;;
27127;SDS011;14660;49.008;8.390;2022-11-27T17:04:07;25.10;;;15.68;;
27127;SDS011;14660;49.008;8.390;2022-11-27T17:06:38;22.60;;;14.05;;
27127;SDS011;14660;49.008;8.390;2022-11-27T17:09:05;24.48;;;14.50;;
27127;SDS011;14660;49.008;8.390;2022-11-27T17:11:32;25.83;;;14.77;;
27127;SDS011;14660;49.008;8.390;2022-11-27T17:14:00;20.67;;;12.57;;
27127;SDS011;14660;49.008;8.390;2022-11-27T17:16:29;27.05;;;13.55;;
27127;SDS011;14660;49.008;8.390;2022-11-27T17:18:55;24.95;;;14.68;;
27127;SDS011;14660;49.008;8.390;2022-11-27T17:21:29;24.65;;;15.07;;
27127;SDS011;14660;49.008;8.390;2022-11-27T17:23:57;20.92;;;13.35;;